Future City, Illinois
Current Conditions -  °F | °C
As of 2:15 AM on Thursday 27 Nov 2014 (Local Time) from KCIR Reporting Station
Overcast Overcast  
Wind Chill: 32°   Ceiling: 1900
Heat Index: 39°   Visibility: 10mi
Dew Point: 34°   Wind: 12mph
Humidity: 82%   Direction: 310°NW
Pressure: 30.23"   Gusts: 21mph
Location:  37.048°N, 89.2036°W
Report Text: KCIR 270815Z AUTO 31010G18KT 10SM OVC019 04/01 A3023 RMK AO2 T00380009
Loading
Personal Weather Stations






























Interactive Weather Map New forecast layout! Learn more

10-Day Weather Forecast

Advertisements
Track Severe Weather on mobile